createdAt,value
2022-11-25T00:01:26.999Z,4.60
2022-11-25T00:03:56.478Z,4.60
2022-11-25T00:06:26.909Z,4.63
2022-11-25T00:08:57.214Z,4.30
2022-11-25T00:11:30.765Z,4.60
2022-11-25T00:13:59.267Z,5.18
2022-11-25T00:16:28.992Z,5.13
2022-11-25T00:19:00.094Z,4.35
2022-11-25T00:21:36.524Z,4.25
2022-11-25T00:24:06.751Z,4.55
2022-11-25T00:26:37.197Z,4.32
2022-11-25T00:29:07.753Z,4.57
2022-11-25T00:31:40.627Z,4.68
2022-11-25T00:34:12.091Z,4.50
2022-11-25T00:36:40.272Z,4.10
2022-11-25T00:39:11.803Z,4.20
2022-11-25T00:41:57.765Z,4.32
2022-11-25T00:44:39.767Z,4.70
2022-11-25T00:47:11.847Z,5.10
2022-11-25T00:49:41.095Z,5.15
2022-11-25T00:52:10.404Z,4.50
2022-11-25T00:54:38.680Z,5.35
2022-11-25T00:57:06.819Z,5.05
2022-11-25T00:59:34.724Z,5.55
2022-11-25T01:02:03.013Z,6.22
2022-11-25T01:04:32.670Z,4.55
2022-11-25T01:07:02.384Z,4.80
2022-11-25T01:09:49.165Z,4.65
2022-11-25T01:12:17.229Z,4.80
2022-11-25T01:14:45.284Z,4.80
2022-11-25T01:17:15.448Z,5.32
2022-11-25T01:19:44.890Z,4.35
2022-11-25T01:22:12.938Z,4.95
2022-11-25T01:24:43.872Z,4.50
2022-11-25T01:27:11.820Z,4.10
2022-11-25T01:29:41.822Z,5.15
2022-11-25T01:32:09.914Z,5.38
2022-11-25T01:34:40.108Z,4.78
2022-11-25T01:37:09.588Z,4.43
2022-11-25T01:39:38.738Z,5.68
2022-11-25T01:42:07.114Z,4.90
2022-11-25T01:44:37.744Z,4.75
2022-11-25T01:47:14.734Z,5.18
2022-11-25T01:49:45.996Z,4.97
2022-11-25T01:52:21.711Z,4.68
2022-11-25T01:54:54.574Z,5.93
2022-11-25T01:57:27.760Z,5.95
2022-11-25T02:00:00.218Z,5.38
2022-11-25T02:02:30.401Z,4.57
2022-11-25T02:05:00.273Z,4.63
2022-11-25T02:07:35.090Z,5.25
2022-11-25T02:10:05.176Z,4.07
2022-11-25T02:12:36.671Z,5.07
2022-11-25T02:15:06.040Z,4.40
2022-11-25T02:17:34.602Z,4.35
2022-11-25T02:20:05.788Z,3.92
2022-11-25T02:22:48.090Z,4.18
2022-11-25T02:25:21.069Z,4.20
2022-11-25T02:27:52.808Z,3.58
2022-11-25T02:30:21.014Z,4.68
2022-11-25T02:32:50.375Z,4.53
2022-11-25T02:35:40.622Z,4.60
2022-11-25T02:38:11.702Z,4.25
2022-11-25T02:40:47.316Z,4.78
2022-11-25T02:43:16.243Z,4.97
2022-11-25T02:46:00.084Z,4.60
2022-11-25T02:49:00.957Z,4.75
2022-11-25T02:51:21.767Z,4.30
2022-11-25T02:53:50.556Z,4.53
2022-11-25T02:56:23.371Z,4.03
2022-11-25T02:58:51.524Z,3.90
2022-11-25T03:01:19.580Z,5.00
2022-11-25T03:03:50.269Z,4.78
2022-11-25T03:06:18.289Z,4.35
2022-11-25T03:08:46.706Z,4.32
2022-11-25T03:11:44.308Z,4.05
2022-11-25T03:14:12.643Z,2.92
2022-11-25T03:16:40.818Z,3.03
2022-11-25T03:19:09.713Z,3.55
2022-11-25T03:21:37.703Z,5.03
2022-11-25T03:24:06.718Z,3.47
2022-11-25T03:26:36.180Z,4.40
2022-11-25T03:29:04.693Z,3.03
2022-11-25T03:31:34.434Z,3.92
2022-11-25T03:34:02.663Z,4.45
2022-11-25T03:36:31.655Z,3.60
2022-11-25T03:38:59.711Z,4.63
2022-11-25T03:41:28.382Z,6.50
2022-11-25T03:43:57.870Z,4.28
2022-11-25T03:46:26.415Z,4.45
2022-11-25T03:48:56.340Z,5.13
2022-11-25T03:51:25.090Z,4.50
2022-11-25T03:53:54.589Z,4.70
2022-11-25T03:56:24.383Z,4.70
2022-11-25T03:58:52.723Z,4.63
2022-11-25T04:01:28.642Z,4.15
2022-11-25T04:03:56.924Z,4.97
2022-11-25T04:06:25.059Z,4.72
2022-11-25T04:08:55.052Z,5.03
2022-11-25T04:11:43.218Z,3.92
2022-11-25T04:14:11.524Z,4.85
2022-11-25T04:16:41.103Z,5.00
2022-11-25T04:19:09.258Z,5.97
2022-11-25T04:21:37.390Z,4.53
2022-11-25T04:24:06.069Z,4.53
2022-11-25T04:26:35.494Z,4.95
2022-11-25T04:29:10.984Z,5.28
2022-11-25T04:31:41.076Z,4.03
2022-11-25T04:34:09.221Z,4.53
2022-11-25T04:36:37.869Z,4.03
2022-11-25T04:39:06.097Z,4.65
2022-11-25T04:41:36.096Z,4.97
2022-11-25T04:44:04.004Z,4.05
2022-11-25T04:46:37.481Z,4.93
2022-11-25T04:49:06.877Z,4.15
2022-11-25T04:51:35.086Z,4.50
2022-11-25T04:54:07.184Z,4.15
2022-11-25T04:56:37.503Z,3.45
2022-11-25T04:59:23.997Z,3.08
2022-11-25T05:01:52.285Z,2.90
2022-11-25T05:04:49.506Z,3.20
2022-11-25T05:07:19.789Z,3.13
2022-11-25T05:09:50.222Z,4.30
2022-11-25T05:12:27.825Z,3.40
2022-11-25T05:14:56.702Z,3.78
2022-11-25T05:17:27.022Z,4.63
2022-11-25T05:19:56.635Z,3.95
2022-11-25T05:22:26.732Z,3.95
2022-11-25T05:24:55.451Z,4.20
2022-11-25T05:27:24.333Z,3.90
2022-11-25T05:29:56.007Z,4.10
2022-11-25T05:32:26.139Z,4.03
2022-11-25T05:34:58.103Z,5.43
2022-11-25T05:37:26.564Z,4.30
2022-11-25T05:40:01.510Z,4.95
2022-11-25T05:42:43.773Z,5.22
2022-11-25T05:45:13.207Z,3.50
2022-11-25T05:47:41.799Z,4.53
2022-11-25T05:50:11.812Z,4.60
2022-11-25T05:52:40.079Z,4.40
2022-11-25T05:55:09.428Z,5.22
2022-11-25T05:57:37.797Z,4.40
2022-11-25T06:00:10.742Z,6.07
2022-11-25T06:02:50.984Z,5.18
2022-11-25T06:05:21.919Z,5.00
2022-11-25T06:07:52.044Z,8.18
2022-11-25T06:10:22.156Z,4.00
2022-11-25T06:12:50.776Z,4.57
2022-11-25T06:15:18.967Z,4.82
2022-11-25T06:17:49.947Z,5.45
2022-11-25T06:20:25.362Z,4.80
2022-11-25T06:22:53.671Z,4.47
2022-11-25T06:25:27.839Z,4.43
2022-11-25T06:28:12.542Z,4.05
2022-11-25T06:30:42.954Z,4.47
2022-11-25T06:33:18.528Z,4.30
2022-11-25T06:35:49.924Z,4.20
2022-11-25T06:38:18.176Z,4.40
2022-11-25T06:40:46.317Z,4.65
2022-11-25T06:43:14.444Z,4.18
2022-11-25T06:45:42.537Z,4.63
2022-11-25T06:48:10.807Z,5.00
2022-11-25T06:50:38.880Z,3.92
2022-11-25T06:53:08.496Z,4.30
2022-11-25T06:56:14.295Z,4.55
2022-11-25T06:58:43.456Z,3.97
2022-11-25T07:01:15.170Z,3.30
2022-11-25T07:03:44.059Z,3.95
2022-11-25T07:06:13.576Z,3.92
2022-11-25T07:08:49.919Z,3.75
2022-11-25T07:11:41.937Z,4.47
2022-11-25T07:14:15.501Z,3.20
2022-11-25T07:16:45.748Z,3.22
2022-11-25T07:19:15.727Z,3.72
2022-11-25T07:21:45.871Z,4.78
2022-11-25T07:24:16.942Z,3.90
2022-11-25T07:26:46.091Z,3.90
2022-11-25T07:32:10.267Z,3.35
2022-11-25T07:34:39.367Z,3.47
2022-11-25T07:37:08.263Z,3.92
2022-11-25T07:39:51.138Z,3.35
2022-11-25T07:42:19.431Z,3.15
2022-11-25T07:44:47.605Z,3.75
2022-11-25T07:47:54.060Z,3.70
2022-11-25T07:50:22.472Z,3.05
2022-11-25T07:52:50.433Z,4.07
2022-11-25T07:55:19.941Z,3.60
2022-11-25T07:57:47.924Z,3.63
2022-11-25T08:00:17.284Z,3.65
2022-11-25T08:02:45.422Z,3.15
2022-11-25T08:05:13.694Z,3.05
2022-11-25T08:07:42.565Z,3.47
2022-11-25T08:10:11.843Z,3.70
2022-11-25T08:12:41.206Z,2.33
2022-11-25T08:15:10.235Z,2.60
2022-11-25T08:17:38.367Z,3.40
2022-11-25T08:20:07.872Z,2.85
2022-11-25T08:22:36.093Z,2.45
2022-11-25T08:25:04.111Z,2.67
2022-11-25T08:27:32.221Z,2.92
2022-11-25T08:30:01.573Z,3.13
2022-11-25T08:32:30.081Z,2.90
2022-11-25T08:34:58.166Z,2.20
2022-11-25T08:37:26.199Z,2.15
2022-11-25T08:39:54.528Z,2.60
2022-11-25T08:42:22.673Z,3.00
2022-11-25T08:44:53.863Z,3.00
2022-11-25T08:47:23.250Z,3.10
2022-11-25T08:49:53.193Z,3.13
2022-11-25T08:52:21.678Z,2.70
2022-11-25T08:54:50.014Z,2.92
2022-11-25T08:57:18.035Z,3.08
2022-11-25T08:59:46.444Z,3.58
2022-11-25T09:02:17.596Z,3.55
2022-11-25T09:04:46.979Z,3.20
2022-11-25T09:07:15.169Z,3.13
2022-11-25T09:09:43.852Z,2.42
2022-11-25T09:12:12.018Z,3.25
2022-11-25T09:14:41.217Z,3.20
2022-11-25T09:17:11.203Z,3.30
2022-11-25T09:19:39.392Z,2.70
2022-11-25T09:22:09.740Z,2.70
2022-11-25T09:24:37.675Z,3.42
2022-11-25T09:27:06.410Z,2.40
2022-11-25T09:29:34.729Z,3.63
2022-11-25T09:32:03.221Z,3.80
2022-11-25T09:34:31.600Z,3.53
2022-11-25T09:36:59.811Z,3.75
2022-11-25T09:39:30.680Z,2.95
2022-11-25T09:42:29.165Z,2.20
2022-11-25T09:45:24.737Z,2.17
2022-11-25T09:48:08.342Z,2.78
2022-11-25T09:50:49.985Z,2.95
2022-11-25T09:53:31.796Z,3.30
2022-11-25T09:56:05.183Z,3.15
2022-11-25T09:58:36.507Z,3.55
2022-11-25T10:01:07.979Z,3.90
2022-11-25T10:03:42.112Z,2.95
2022-11-25T10:06:17.591Z,2.50
2022-11-25T10:08:49.332Z,3.10
2022-11-25T10:11:27.652Z,2.92
2022-11-25T10:14:00.830Z,2.75
2022-11-25T10:16:51.614Z,2.58
2022-11-25T10:19:27.455Z,2.50
2022-11-25T10:21:55.442Z,2.60
2022-11-25T10:24:24.368Z,2.53
2022-11-25T10:27:01.384Z,2.30
2022-11-25T10:29:31.189Z,2.65
2022-11-25T10:32:12.851Z,2.15
2022-11-25T10:34:45.927Z,2.70
2022-11-25T10:37:20.554Z,3.00
2022-11-25T10:39:48.697Z,2.85
2022-11-25T10:42:22.874Z,2.60
2022-11-25T10:44:51.132Z,2.78
2022-11-25T10:47:36.321Z,3.05
2022-11-25T10:50:18.586Z,3.35
2022-11-25T10:52:52.653Z,3.17
2022-11-25T10:55:24.335Z,3.22
2022-11-25T10:57:54.389Z,2.60
2022-11-25T11:00:28.811Z,2.83
2022-11-25T11:02:58.053Z,2.25
2022-11-25T11:05:29.807Z,2.70
2022-11-25T11:08:18.358Z,2.55
2022-11-25T11:10:48.793Z,2.50
2022-11-25T11:13:25.883Z,2.30
2022-11-25T11:15:55.019Z,2.75
2022-11-25T11:18:27.958Z,2.47
2022-11-25T11:20:58.909Z,2.58
2022-11-25T11:23:28.496Z,3.45
2022-11-25T11:26:02.242Z,2.55
2022-11-25T11:28:41.508Z,2.80
2022-11-25T11:31:19.225Z,3.53
2022-11-25T11:33:58.801Z,3.20
2022-11-25T11:36:39.476Z,2.42
2022-11-25T11:39:22.547Z,3.00
2022-11-25T11:41:58.253Z,2.72
2022-11-25T11:44:39.446Z,3.22
2022-11-25T11:47:22.081Z,2.50
2022-11-25T11:50:14.138Z,2.38
2022-11-25T11:52:53.871Z,2.15
2022-11-25T11:55:37.277Z,3.30
2022-11-25T11:58:15.754Z,4.40
2022-11-25T12:00:54.800Z,3.92
2022-11-25T12:03:25.333Z,3.40
2022-11-25T12:05:57.391Z,2.47
2022-11-25T12:08:33.111Z,2.38
2022-11-25T12:11:06.011Z,2.33
2022-11-25T12:13:41.394Z,2.67
2022-11-25T12:16:16.410Z,3.60
2022-11-25T12:18:52.000Z,2.75
2022-11-25T12:21:42.256Z,3.20
2022-11-25T12:24:19.769Z,2.65
2022-11-25T12:26:52.496Z,2.85
2022-11-25T12:29:28.423Z,3.00
2022-11-25T12:32:10.505Z,2.50
2022-11-25T12:34:44.676Z,2.55
2022-11-25T12:37:20.010Z,1.92
2022-11-25T12:39:57.502Z,2.35
2022-11-25T12:42:29.675Z,2.30
2022-11-25T12:45:03.747Z,2.80
2022-11-25T12:47:34.076Z,2.42
2022-11-25T12:50:02.388Z,2.80
2022-11-25T12:52:46.716Z,2.67
2022-11-25T12:55:19.021Z,2.65
2022-11-25T12:58:23.602Z,2.90
2022-11-25T13:01:14.193Z,2.58
2022-11-25T13:04:04.555Z,3.00
2022-11-25T13:06:51.490Z,2.22
2022-11-25T13:09:39.021Z,2.60
2022-11-25T13:12:33.472Z,2.72
2022-11-25T13:15:20.061Z,2.70
2022-11-25T13:17:50.606Z,3.33
2022-11-25T13:20:49.396Z,3.00
2022-11-25T13:23:49.525Z,2.65
2022-11-25T13:26:54.447Z,2.60
2022-11-25T13:29:58.350Z,2.15
2022-11-25T13:32:34.789Z,2.63
2022-11-25T13:35:35.908Z,2.42
2022-11-25T13:38:32.603Z,2.63
2022-11-25T13:41:02.356Z,2.35
2022-11-25T13:43:30.669Z,3.30
2022-11-25T13:45:58.817Z,2.28
2022-11-25T13:48:29.957Z,2.55
2022-11-25T13:51:18.194Z,2.05
2022-11-25T13:53:55.577Z,3.35
2022-11-25T13:56:29.588Z,3.03
2022-11-25T13:59:20.928Z,2.70
2022-11-25T14:01:55.804Z,3.13
2022-11-25T14:04:42.230Z,2.15
2022-11-25T14:07:27.737Z,2.00
2022-11-25T14:10:22.913Z,4.28
2022-11-25T14:13:08.567Z,2.55
2022-11-25T14:16:09.496Z,2.50
2022-11-25T14:19:49.335Z,2.60
2022-11-25T14:22:02.907Z,2.45
2022-11-25T14:24:36.973Z,2.80
2022-11-25T14:27:06.934Z,2.20
2022-11-25T14:29:41.432Z,3.05
2022-11-25T14:32:14.394Z,2.92
2022-11-25T14:34:47.636Z,3.80
2022-11-25T14:37:22.687Z,3.17
2022-11-25T14:39:56.321Z,2.38
2022-11-25T14:42:29.128Z,2.38
2022-11-25T14:44:58.528Z,3.42
2022-11-25T14:47:27.946Z,2.78
2022-11-25T14:50:26.559Z,2.33
2022-11-25T14:52:48.599Z,2.95
2022-11-25T14:55:27.886Z,2.42
2022-11-25T14:57:57.449Z,3.00
2022-11-25T15:00:26.146Z,2.38
2022-11-25T15:02:57.055Z,3.10
2022-11-25T15:05:27.806Z,2.47
2022-11-25T15:08:02.152Z,2.53
2022-11-25T15:10:51.010Z,2.28
2022-11-25T15:13:40.230Z,2.60
2022-11-25T15:16:11.879Z,3.45
2022-11-25T15:18:48.178Z,2.38
2022-11-25T15:21:18.626Z,2.63
2022-11-25T15:23:46.924Z,2.65
2022-11-25T15:26:18.854Z,2.55
2022-11-25T15:28:48.820Z,2.38
2022-11-25T15:31:20.476Z,2.65
2022-11-25T15:33:54.875Z,3.00
2022-11-25T15:36:24.147Z,3.33
2022-11-25T15:38:52.430Z,2.85
2022-11-25T15:41:26.175Z,2.10
2022-11-25T15:43:59.092Z,2.88
2022-11-25T15:46:28.770Z,3.35
2022-11-25T15:49:00.275Z,3.40
2022-11-25T15:51:39.327Z,2.85
2022-11-25T15:54:18.181Z,3.65
2022-11-25T15:56:49.648Z,3.45
2022-11-25T15:59:42.325Z,3.60
2022-11-25T16:02:31.235Z,4.03
2022-11-25T16:05:15.581Z,4.38
2022-11-25T16:07:59.280Z,3.20
2022-11-25T16:10:30.838Z,4.43
2022-11-25T16:13:29.164Z,4.60
2022-11-25T16:16:03.607Z,3.92
2022-11-25T16:18:42.595Z,3.72
2022-11-25T16:21:14.712Z,3.60
2022-11-25T16:23:46.796Z,3.70
2022-11-25T16:26:17.791Z,2.90
2022-11-25T16:28:53.024Z,3.55
2022-11-25T16:31:23.136Z,3.95
2022-11-25T16:33:51.823Z,4.68
2022-11-25T16:36:19.854Z,3.55
2022-11-25T16:38:53.136Z,3.10
2022-11-25T16:41:24.691Z,4.38
2022-11-25T16:43:55.062Z,4.28
2022-11-25T16:46:46.200Z,4.30
2022-11-25T16:49:15.652Z,3.20
2022-11-25T16:51:44.427Z,4.63
2022-11-25T16:54:13.275Z,4.30
2022-11-25T16:56:45.154Z,3.92
2022-11-25T16:59:18.528Z,5.38
2022-11-25T17:01:48.484Z,4.40
2022-11-25T17:04:17.326Z,4.70
2022-11-25T17:07:03.798Z,4.10
2022-11-25T17:09:34.853Z,5.45
2022-11-25T17:12:03.175Z,6.25
2022-11-25T17:14:34.537Z,5.60
2022-11-25T17:17:04.674Z,4.97
2022-11-25T17:19:33.025Z,4.57
2022-11-25T17:22:01.321Z,4.78
2022-11-25T17:24:29.265Z,3.78
2022-11-25T17:27:01.548Z,3.90
2022-11-25T17:29:33.724Z,4.85
2022-11-25T17:32:02.727Z,5.10
2022-11-25T17:34:36.426Z,4.57
2022-11-25T17:37:14.751Z,4.47
2022-11-25T17:39:43.277Z,3.65
2022-11-25T17:42:14.042Z,3.92
2022-11-25T17:44:42.736Z,4.80
2022-11-25T17:47:13.109Z,3.97
2022-11-25T17:49:43.088Z,5.95
2022-11-25T17:52:11.026Z,5.47
2022-11-25T17:54:39.643Z,5.07
2022-11-25T17:57:18.384Z,5.53
2022-11-25T17:59:46.554Z,4.45
2022-11-25T18:02:19.637Z,4.35
2022-11-25T18:04:49.784Z,4.68
2022-11-25T18:07:18.365Z,4.72
2022-11-25T18:09:46.684Z,4.80
2022-11-25T18:12:20.289Z,4.78
2022-11-25T18:14:48.589Z,5.88
2022-11-25T18:17:19.195Z,5.10
2022-11-25T18:19:52.937Z,4.85
2022-11-25T18:22:24.893Z,5.50
2022-11-25T18:24:53.668Z,3.90
2022-11-25T18:27:24.717Z,4.70
2022-11-25T18:29:53.584Z,6.30
2022-11-25T18:32:22.587Z,4.90
2022-11-25T18:34:51.611Z,4.78
2022-11-25T18:37:19.628Z,6.55
2022-11-25T18:39:49.278Z,4.78
2022-11-25T18:42:24.206Z,3.80
2022-11-25T18:44:52.847Z,4.25
2022-11-25T18:47:21.067Z,5.03
2022-11-25T18:49:55.101Z,4.22
2022-11-25T18:52:24.425Z,4.35
2022-11-25T18:54:53.958Z,3.80
2022-11-25T18:57:22.250Z,4.22
2022-11-25T19:00:10.632Z,4.30
2022-11-25T19:02:39.777Z,3.42
2022-11-25T19:05:16.720Z,3.92
2022-11-25T19:07:48.050Z,4.05
2022-11-25T19:10:18.509Z,5.50
2022-11-25T19:12:49.347Z,3.90
2022-11-25T19:15:19.730Z,4.43
2022-11-25T19:17:51.241Z,4.38
2022-11-25T19:20:21.867Z,4.47
2022-11-25T19:22:50.016Z,4.22
2022-11-25T19:25:19.701Z,4.80
2022-11-25T19:27:51.856Z,4.05
2022-11-25T19:30:22.102Z,3.83
2022-11-25T19:32:54.381Z,3.70
2022-11-25T19:35:27.851Z,4.00
2022-11-25T19:37:55.949Z,3.42
2022-11-25T19:40:25.963Z,4.18
2022-11-25T19:42:54.293Z,5.13
2022-11-25T19:45:23.138Z,3.55
2022-11-25T19:47:53.170Z,3.75
2022-11-25T19:50:23.715Z,4.10
2022-11-25T19:52:52.069Z,4.53
2022-11-25T19:55:27.556Z,3.85
2022-11-25T19:57:55.773Z,4.75
2022-11-25T20:00:25.037Z,5.55
2022-11-25T20:02:56.243Z,4.03
2022-11-25T20:05:29.936Z,4.30
2022-11-25T20:07:57.910Z,5.15
2022-11-25T20:10:29.401Z,4.45
2022-11-25T20:12:58.326Z,4.97
2022-11-25T20:15:27.523Z,4.93
2022-11-25T20:17:59.855Z,4.82
2022-11-25T20:20:30.875Z,5.45
2022-11-25T20:23:02.665Z,4.05
2022-11-25T20:25:32.679Z,4.85
2022-11-25T20:28:02.763Z,4.93
2022-11-25T20:30:33.604Z,5.47
2022-11-25T20:33:02.571Z,5.25
2022-11-25T20:35:33.107Z,3.70
2022-11-25T20:38:04.285Z,4.20
2022-11-25T20:40:41.447Z,5.05
2022-11-25T20:43:19.456Z,4.47
2022-11-25T20:45:51.270Z,4.47
2022-11-25T20:48:20.664Z,4.00
2022-11-25T20:50:51.911Z,4.78
2022-11-25T20:53:23.995Z,5.00
2022-11-25T20:55:54.915Z,5.45
2022-11-25T20:58:27.695Z,3.97
2022-11-25T21:01:02.789Z,3.85
2022-11-25T21:03:34.495Z,3.95
2022-11-25T21:06:15.589Z,2.90
2022-11-25T21:08:52.313Z,2.60
2022-11-25T21:11:35.651Z,3.50
2022-11-25T21:14:07.952Z,4.43
2022-11-25T21:16:42.368Z,3.13
2022-11-25T21:19:17.884Z,2.88
2022-11-25T21:21:52.953Z,3.10
2022-11-25T21:24:34.097Z,2.90
2022-11-25T21:27:15.031Z,2.65
2022-11-25T21:29:47.406Z,2.80
2022-11-25T21:32:23.256Z,2.58
2022-11-25T21:34:53.900Z,2.53
2022-11-25T21:37:32.619Z,3.25
2022-11-25T21:40:06.395Z,3.03
2022-11-25T21:42:40.900Z,2.40
2022-11-25T21:45:18.961Z,2.17
2022-11-25T21:48:20.226Z,2.75
2022-11-25T21:50:49.198Z,2.80
2022-11-25T21:53:19.079Z,2.38
2022-11-25T21:55:48.087Z,2.70
2022-11-25T21:58:19.593Z,3.20
2022-11-25T22:00:51.713Z,2.30
2022-11-25T22:03:21.490Z,3.40
2022-11-25T22:05:54.039Z,3.30
2022-11-25T22:08:26.408Z,3.20
2022-11-25T22:11:02.789Z,4.18
2022-11-25T22:13:43.141Z,2.60
2022-11-25T22:16:19.915Z,3.35
2022-11-25T22:18:52.581Z,2.42
2022-11-25T22:21:29.926Z,2.78
2022-11-25T22:23:59.933Z,3.05
2022-11-25T22:26:30.825Z,3.83
2022-11-25T22:29:02.676Z,2.25
2022-11-25T22:31:30.771Z,3.17
2022-11-25T22:33:59.100Z,3.38
2022-11-25T22:36:33.790Z,2.80
2022-11-25T22:39:13.692Z,3.70
2022-11-25T22:41:42.533Z,4.07
2022-11-25T22:44:19.359Z,3.85
2022-11-25T22:46:48.424Z,4.32
2022-11-25T22:49:28.327Z,4.20
2022-11-25T22:51:56.777Z,3.13
2022-11-25T22:54:25.398Z,3.30
2022-11-25T22:56:53.756Z,3.17
2022-11-25T22:59:27.196Z,3.08
2022-11-25T23:01:55.447Z,3.10
2022-11-25T23:04:23.723Z,3.15
2022-11-25T23:06:53.475Z,3.60
2022-11-25T23:09:21.741Z,3.08
2022-11-25T23:11:50.420Z,3.03
2022-11-25T23:14:18.451Z,2.90
2022-11-25T23:16:48.298Z,3.17
2022-11-25T23:19:17.632Z,3.60
2022-11-25T23:21:46.591Z,3.00
2022-11-25T23:24:16.585Z,3.45
2022-11-25T23:26:45.284Z,3.50
2022-11-25T23:29:13.275Z,4.30
2022-11-25T23:31:41.761Z,3.25
2022-11-25T23:34:13.808Z,3.33
2022-11-25T23:36:45.913Z,3.40
2022-11-25T23:39:20.511Z,3.80
2022-11-25T23:41:49.344Z,4.00
2022-11-25T23:44:24.128Z,3.10
2022-11-25T23:46:52.878Z,4.93
2022-11-25T23:49:26.441Z,3.80
2022-11-25T23:52:00.296Z,3.35
2022-11-25T23:54:40.533Z,3.60
2022-11-25T23:57:14.412Z,2.75
2022-11-25T23:59:42.443Z,3.55
